sensor_id;sensor_type;location;lat;lon;timestamp;P1;durP1;ratioP1;P2;durP2;ratioP2
21777;SDS011;11050;52.222;20.916;2024-03-23T00:53:14;47.57;;;23.33;;
21777;SDS011;11050;52.222;20.916;2024-03-23T00:55:43;47.80;;;24.30;;
21777;SDS011;11050;52.222;20.916;2024-03-23T00:58:09;47.50;;;24.90;;
21777;SDS011;11050;52.222;20.916;2024-03-23T01:00:35;46.93;;;22.53;;
21777;SDS011;11050;52.222;20.916;2024-03-23T01:03:01;43.13;;;23.47;;
21777;SDS011;11050;52.222;20.916;2024-03-23T01:05:26;45.13;;;24.50;;
21777;SDS011;11050;52.222;20.916;2024-03-23T01:07:52;45.67;;;24.93;;
21777;SDS011;11050;52.222;20.916;2024-03-23T01:10:18;47.73;;;24.60;;
21777;SDS011;11050;52.222;20.916;2024-03-23T01:12:44;48.30;;;24.70;;
21777;SDS011;11050;52.222;20.916;2024-03-23T01:15:09;49.80;;;25.47;;
21777;SDS011;11050;52.222;20.916;2024-03-23T01:17:35;50.67;;;27.57;;
21777;SDS011;11050;52.222;20.916;2024-03-23T01:20:01;50.47;;;26.53;;
21777;SDS011;11050;52.222;20.916;2024-03-23T01:22:27;48.97;;;26.47;;
21777;SDS011;11050;52.222;20.916;2024-03-23T01:24:53;52.10;;;28.13;;
21777;SDS011;11050;52.222;20.916;2024-03-23T01:27:19;54.30;;;27.07;;
21777;SDS011;11050;52.222;20.916;2024-03-23T01:29:45;53.20;;;26.23;;
21777;SDS011;11050;52.222;20.916;2024-03-23T01:32:10;51.17;;;25.50;;
21777;SDS011;11050;52.222;20.916;2024-03-23T01:34:36;51.00;;;27.17;;
21777;SDS011;11050;52.222;20.916;2024-03-23T01:37:02;52.53;;;27.30;;
21777;SDS011;11050;52.222;20.916;2024-03-23T01:39:28;52.53;;;26.57;;
21777;SDS011;11050;52.222;20.916;2024-03-23T01:41:53;48.33;;;21.73;;
21777;SDS011;11050;52.222;20.916;2024-03-23T01:44:19;46.63;;;24.20;;
21777;SDS011;11050;52.222;20.916;2024-03-23T01:46:45;48.13;;;25.47;;
21777;SDS011;11050;52.222;20.916;2024-03-23T01:49:11;52.27;;;25.53;;
21777;SDS011;11050;52.222;20.916;2024-03-23T01:51:37;49.07;;;24.47;;
21777;SDS011;11050;52.222;20.916;2024-03-23T01:54:04;52.10;;;25.30;;
21777;SDS011;11050;52.222;20.916;2024-03-23T01:56:35;51.83;;;25.63;;
21777;SDS011;11050;52.222;20.916;2024-03-23T01:59:07;49.80;;;25.33;;
21777;SDS011;11050;52.222;20.916;2024-03-23T02:01:36;48.37;;;24.47;;
21777;SDS011;11050;52.222;20.916;2024-03-23T02:04:01;53.17;;;25.83;;
21777;SDS011;11050;52.222;20.916;2024-03-23T02:06:27;50.87;;;25.43;;
21777;SDS011;11050;52.222;20.916;2024-03-23T02:08:54;48.60;;;23.30;;
21777;SDS011;11050;52.222;20.916;2024-03-23T02:11:20;48.17;;;24.93;;
21777;SDS011;11050;52.222;20.916;2024-03-23T02:13:46;51.20;;;25.50;;
21777;SDS011;11050;52.222;20.916;2024-03-23T02:16:12;53.93;;;25.10;;
21777;SDS011;11050;52.222;20.916;2024-03-23T02:18:40;47.53;;;24.70;;
21777;SDS011;11050;52.222;20.916;2024-03-23T02:21:06;62.13;;;28.03;;
21777;SDS011;11050;52.222;20.916;2024-03-23T02:23:32;54.00;;;27.53;;
21777;SDS011;11050;52.222;20.916;2024-03-23T02:25:58;56.03;;;26.93;;
21777;SDS011;11050;52.222;20.916;2024-03-23T02:28:23;50.60;;;25.53;;
21777;SDS011;11050;52.222;20.916;2024-03-23T02:30:49;55.87;;;25.73;;
21777;SDS011;11050;52.222;20.916;2024-03-23T02:33:15;56.30;;;26.07;;
21777;SDS011;11050;52.222;20.916;2024-03-23T02:35:41;56.67;;;26.30;;
21777;SDS011;11050;52.222;20.916;2024-03-23T02:38:11;57.77;;;27.37;;
21777;SDS011;11050;52.222;20.916;2024-03-23T02:40:36;45.77;;;22.20;;
21777;SDS011;11050;52.222;20.916;2024-03-23T02:43:03;53.43;;;26.00;;
21777;SDS011;11050;52.222;20.916;2024-03-23T02:45:29;59.33;;;28.77;;
21777;SDS011;11050;52.222;20.916;2024-03-23T02:47:56;52.37;;;27.20;;
21777;SDS011;11050;52.222;20.916;2024-03-23T02:50:22;59.50;;;29.23;;
21777;SDS011;11050;52.222;20.916;2024-03-23T02:52:48;57.67;;;28.43;;
21777;SDS011;11050;52.222;20.916;2024-03-23T02:55:14;60.33;;;29.37;;
21777;SDS011;11050;52.222;20.916;2024-03-23T02:57:41;62.03;;;28.33;;
21777;SDS011;11050;52.222;20.916;2024-03-23T03:00:07;63.47;;;28.40;;
21777;SDS011;11050;52.222;20.916;2024-03-23T03:02:34;57.07;;;28.27;;
21777;SDS011;11050;52.222;20.916;2024-03-23T03:05:01;58.17;;;28.67;;
21777;SDS011;11050;52.222;20.916;2024-03-23T03:07:26;55.33;;;26.37;;
21777;SDS011;11050;52.222;20.916;2024-03-23T03:09:52;61.90;;;28.00;;
21777;SDS011;11050;52.222;20.916;2024-03-23T03:12:18;62.73;;;28.70;;
21777;SDS011;11050;52.222;20.916;2024-03-23T03:14:44;60.43;;;28.87;;
21777;SDS011;11050;52.222;20.916;2024-03-23T03:17:09;52.00;;;24.73;;
21777;SDS011;11050;52.222;20.916;2024-03-23T03:19:35;63.23;;;27.07;;
21777;SDS011;11050;52.222;20.916;2024-03-23T03:22:01;59.37;;;27.87;;
21777;SDS011;11050;52.222;20.916;2024-03-23T03:24:26;55.00;;;27.17;;
21777;SDS011;11050;52.222;20.916;2024-03-23T03:26:52;65.67;;;29.40;;
21777;SDS011;11050;52.222;20.916;2024-03-23T03:29:18;59.97;;;28.90;;
21777;SDS011;11050;52.222;20.916;2024-03-23T03:31:43;58.90;;;28.40;;
21777;SDS011;11050;52.222;20.916;2024-03-23T03:34:09;62.33;;;28.13;;
21777;SDS011;11050;52.222;20.916;2024-03-23T03:36:35;59.33;;;27.67;;
21777;SDS011;11050;52.222;20.916;2024-03-23T03:39:01;61.47;;;28.57;;
21777;SDS011;11050;52.222;20.916;2024-03-23T03:41:31;60.70;;;28.77;;
21777;SDS011;11050;52.222;20.916;2024-03-23T03:43:57;60.00;;;27.53;;
21777;SDS011;11050;52.222;20.916;2024-03-23T03:46:26;55.07;;;25.40;;
21777;SDS011;11050;52.222;20.916;2024-03-23T03:48:54;61.30;;;28.43;;
21777;SDS011;11050;52.222;20.916;2024-03-23T03:51:19;59.57;;;28.67;;
21777;SDS011;11050;52.222;20.916;2024-03-23T03:53:46;60.50;;;28.57;;
21777;SDS011;11050;52.222;20.916;2024-03-23T03:56:11;59.43;;;27.27;;
21777;SDS011;11050;52.222;20.916;2024-03-23T03:58:41;56.43;;;27.40;;
21777;SDS011;11050;52.222;20.916;2024-03-23T04:01:06;57.87;;;27.63;;
21777;SDS011;11050;52.222;20.916;2024-03-23T04:03:32;59.30;;;29.50;;
21777;SDS011;11050;52.222;20.916;2024-03-23T04:05:58;55.10;;;27.40;;
21777;SDS011;11050;52.222;20.916;2024-03-23T04:08:23;63.20;;;28.37;;
21777;SDS011;11050;52.222;20.916;2024-03-23T04:10:49;51.20;;;25.93;;
21777;SDS011;11050;52.222;20.916;2024-03-23T04:13:15;54.23;;;27.37;;
21777;SDS011;11050;52.222;20.916;2024-03-23T04:15:41;54.90;;;27.33;;
21777;SDS011;11050;52.222;20.916;2024-03-23T04:18:07;60.30;;;28.37;;
21777;SDS011;11050;52.222;20.916;2024-03-23T04:20:34;58.83;;;27.57;;
21777;SDS011;11050;52.222;20.916;2024-03-23T04:22:59;52.60;;;26.83;;
21777;SDS011;11050;52.222;20.916;2024-03-23T04:25:25;55.27;;;27.57;;
21777;SDS011;11050;52.222;20.916;2024-03-23T04:27:51;52.93;;;26.90;;
21777;SDS011;11050;52.222;20.916;2024-03-23T04:30:17;55.87;;;27.90;;
21777;SDS011;11050;52.222;20.916;2024-03-23T04:32:44;52.10;;;24.20;;
21777;SDS011;11050;52.222;20.916;2024-03-23T04:35:10;56.80;;;26.70;;
21777;SDS011;11050;52.222;20.916;2024-03-23T04:37:36;55.83;;;27.37;;
21777;SDS011;11050;52.222;20.916;2024-03-23T04:40:03;54.47;;;26.83;;
21777;SDS011;11050;52.222;20.916;2024-03-23T04:42:31;54.23;;;27.07;;
21777;SDS011;11050;52.222;20.916;2024-03-23T04:44:57;60.23;;;28.87;;
21777;SDS011;11050;52.222;20.916;2024-03-23T04:47:22;59.33;;;29.73;;
21777;SDS011;11050;52.222;20.916;2024-03-23T04:49:49;60.33;;;29.33;;
21777;SDS011;11050;52.222;20.916;2024-03-23T04:52:15;64.67;;;30.37;;
21777;SDS011;11050;52.222;20.916;2024-03-23T04:54:42;74.50;;;34.50;;
21777;SDS011;11050;52.222;20.916;2024-03-23T04:57:08;69.87;;;33.27;;
21777;SDS011;11050;52.222;20.916;2024-03-23T04:59:34;73.43;;;34.70;;
21777;SDS011;11050;52.222;20.916;2024-03-23T05:02:00;77.40;;;34.87;;
21777;SDS011;11050;52.222;20.916;2024-03-23T05:04:26;78.03;;;35.57;;
21777;SDS011;11050;52.222;20.916;2024-03-23T05:06:52;82.87;;;36.13;;
21777;SDS011;11050;52.222;20.916;2024-03-23T05:09:18;74.80;;;34.93;;
21777;SDS011;11050;52.222;20.916;2024-03-23T05:11:45;82.10;;;36.83;;
21777;SDS011;11050;52.222;20.916;2024-03-23T05:14:14;76.73;;;35.53;;
21777;SDS011;11050;52.222;20.916;2024-03-23T05:16:40;76.60;;;35.97;;
21777;SDS011;11050;52.222;20.916;2024-03-23T05:19:06;79.87;;;35.67;;
21777;SDS011;11050;52.222;20.916;2024-03-23T05:21:32;74.40;;;33.13;;
21777;SDS011;11050;52.222;20.916;2024-03-23T05:23:57;73.87;;;35.47;;
21777;SDS011;11050;52.222;20.916;2024-03-23T05:26:23;68.10;;;33.13;;
21777;SDS011;11050;52.222;20.916;2024-03-23T05:28:49;70.63;;;32.13;;
21777;SDS011;11050;52.222;20.916;2024-03-23T05:31:24;68.00;;;33.33;;
21777;SDS011;11050;52.222;20.916;2024-03-23T05:33:52;75.20;;;36.03;;
21777;SDS011;11050;52.222;20.916;2024-03-23T05:36:18;68.27;;;33.80;;
21777;SDS011;11050;52.222;20.916;2024-03-23T05:38:44;74.63;;;34.70;;
21777;SDS011;11050;52.222;20.916;2024-03-23T05:41:10;74.00;;;35.43;;
21777;SDS011;11050;52.222;20.916;2024-03-23T05:43:35;81.27;;;35.67;;
21777;SDS011;11050;52.222;20.916;2024-03-23T05:46:01;77.73;;;35.70;;
21777;SDS011;11050;52.222;20.916;2024-03-23T05:48:27;78.80;;;35.67;;
21777;SDS011;11050;52.222;20.916;2024-03-23T05:50:55;72.93;;;34.13;;
21777;SDS011;11050;52.222;20.916;2024-03-23T05:53:23;78.67;;;35.13;;
21777;SDS011;11050;52.222;20.916;2024-03-23T05:55:49;70.77;;;34.23;;
21777;SDS011;11050;52.222;20.916;2024-03-23T05:58:18;72.40;;;34.63;;
21777;SDS011;11050;52.222;20.916;2024-03-23T06:00:45;71.97;;;34.37;;
21777;SDS011;11050;52.222;20.916;2024-03-23T06:03:11;79.67;;;34.00;;
21777;SDS011;11050;52.222;20.916;2024-03-23T06:05:37;70.63;;;31.87;;
21777;SDS011;11050;52.222;20.916;2024-03-23T06:08:03;67.93;;;33.47;;
21777;SDS011;11050;52.222;20.916;2024-03-23T06:10:30;64.07;;;31.40;;
21777;SDS011;11050;52.222;20.916;2024-03-23T06:12:56;65.93;;;31.83;;
21777;SDS011;11050;52.222;20.916;2024-03-23T06:15:24;63.20;;;31.53;;
21777;SDS011;11050;52.222;20.916;2024-03-23T06:17:52;63.77;;;31.50;;
21777;SDS011;11050;52.222;20.916;2024-03-23T06:20:18;63.30;;;31.33;;
21777;SDS011;11050;52.222;20.916;2024-03-23T06:22:43;61.20;;;31.37;;
21777;SDS011;11050;52.222;20.916;2024-03-23T06:25:09;66.47;;;33.03;;
21777;SDS011;11050;52.222;20.916;2024-03-23T06:27:37;67.33;;;31.53;;
21777;SDS011;11050;52.222;20.916;2024-03-23T06:30:04;59.37;;;30.33;;
21777;SDS011;11050;52.222;20.916;2024-03-23T06:32:32;60.23;;;30.17;;
21777;SDS011;11050;52.222;20.916;2024-03-23T06:34:58;60.63;;;31.20;;
21777;SDS011;11050;52.222;20.916;2024-03-23T06:37:23;60.67;;;29.90;;
21777;SDS011;11050;52.222;20.916;2024-03-23T06:39:50;55.77;;;28.83;;
21777;SDS011;11050;52.222;20.916;2024-03-23T06:42:16;55.70;;;27.40;;
21777;SDS011;11050;52.222;20.916;2024-03-23T06:44:43;56.63;;;28.70;;
21777;SDS011;11050;52.222;20.916;2024-03-23T06:47:09;54.55;;;28.90;;
21777;SDS011;11050;52.222;20.916;2024-03-23T06:49:35;54.77;;;28.93;;
21777;SDS011;11050;52.222;20.916;2024-03-23T06:52:00;49.93;;;27.80;;
21777;SDS011;11050;52.222;20.916;2024-03-23T06:54:26;60.50;;;29.97;;
21777;SDS011;11050;52.222;20.916;2024-03-23T06:56:52;55.67;;;29.93;;
21777;SDS011;11050;52.222;20.916;2024-03-23T06:59:17;54.40;;;28.57;;
21777;SDS011;11050;52.222;20.916;2024-03-23T07:01:43;55.13;;;28.75;;
21777;SDS011;11050;52.222;20.916;2024-03-23T07:04:09;52.90;;;28.57;;
21777;SDS011;11050;52.222;20.916;2024-03-23T07:06:35;59.37;;;28.57;;
21777;SDS011;11050;52.222;20.916;2024-03-23T07:09:09;54.87;;;28.40;;
21777;SDS011;11050;52.222;20.916;2024-03-23T07:11:35;54.00;;;27.63;;
21777;SDS011;11050;52.222;20.916;2024-03-23T07:14:00;52.23;;;27.70;;
21777;SDS011;11050;52.222;20.916;2024-03-23T07:16:27;57.10;;;28.90;;
21777;SDS011;11050;52.222;20.916;2024-03-23T07:18:54;59.80;;;28.23;;
21777;SDS011;11050;52.222;20.916;2024-03-23T07:21:20;54.37;;;28.23;;
21777;SDS011;11050;52.222;20.916;2024-03-23T07:23:47;55.60;;;28.10;;
21777;SDS011;11050;52.222;20.916;2024-03-23T07:26:13;57.40;;;28.73;;
21777;SDS011;11050;52.222;20.916;2024-03-23T07:28:39;56.93;;;28.00;;
21777;SDS011;11050;52.222;20.916;2024-03-23T07:31:12;48.70;;;25.50;;
21777;SDS011;11050;52.222;20.916;2024-03-23T07:36:10;49.83;;;26.00;;
21777;SDS011;11050;52.222;20.916;2024-03-23T07:38:36;43.83;;;23.57;;
21777;SDS011;11050;52.222;20.916;2024-03-23T07:41:05;49.23;;;25.50;;
21777;SDS011;11050;52.222;20.916;2024-03-23T07:43:36;46.07;;;24.27;;
21777;SDS011;11050;52.222;20.916;2024-03-23T07:46:04;47.93;;;26.00;;
21777;SDS011;11050;52.222;20.916;2024-03-23T07:48:30;48.07;;;24.67;;
21777;SDS011;11050;52.222;20.916;2024-03-23T07:53:23;47.67;;;24.13;;
21777;SDS011;11050;52.222;20.916;2024-03-23T07:55:53;49.37;;;24.93;;
21777;SDS011;11050;52.222;20.916;2024-03-23T07:58:24;45.77;;;24.30;;
21777;SDS011;11050;52.222;20.916;2024-03-23T08:00:54;51.73;;;26.00;;
21777;SDS011;11050;52.222;20.916;2024-03-23T08:03:21;53.17;;;26.10;;
21777;SDS011;11050;52.222;20.916;2024-03-23T08:05:47;53.70;;;25.23;;
21777;SDS011;11050;52.222;20.916;2024-03-23T08:08:13;49.55;;;25.80;;
21777;SDS011;11050;52.222;20.916;2024-03-23T08:10:52;45.97;;;25.67;;
21777;SDS011;11050;52.222;20.916;2024-03-23T08:13:18;49.43;;;25.67;;
21777;SDS011;11050;52.222;20.916;2024-03-23T08:15:44;40.27;;;23.90;;
21777;SDS011;11050;52.222;20.916;2024-03-23T08:18:11;43.10;;;25.27;;
21777;SDS011;11050;52.222;20.916;2024-03-23T08:20:40;41.10;;;23.47;;
21777;SDS011;11050;52.222;20.916;2024-03-23T08:23:06;41.77;;;22.73;;
21777;SDS011;11050;52.222;20.916;2024-03-23T08:25:33;38.37;;;21.80;;
21777;SDS011;11050;52.222;20.916;2024-03-23T08:28:00;37.65;;;22.67;;
21777;SDS011;11050;52.222;20.916;2024-03-23T08:30:26;40.47;;;23.50;;
21777;SDS011;11050;52.222;20.916;2024-03-23T08:32:53;37.53;;;23.40;;
21777;SDS011;11050;52.222;20.916;2024-03-23T08:35:19;41.50;;;23.48;;
21777;SDS011;11050;52.222;20.916;2024-03-23T08:37:45;39.15;;;23.25;;
21777;SDS011;11050;52.222;20.916;2024-03-23T08:40:11;39.63;;;22.55;;
21777;SDS011;11050;52.222;20.916;2024-03-23T08:42:37;39.30;;;23.52;;
21777;SDS011;11050;52.222;20.916;2024-03-23T08:45:03;35.42;;;21.70;;
21777;SDS011;11050;52.222;20.916;2024-03-23T08:47:33;35.00;;;21.92;;
21777;SDS011;11050;52.222;20.916;2024-03-23T08:50:00;33.67;;;20.27;;
21777;SDS011;11050;52.222;20.916;2024-03-23T08:52:27;35.20;;;20.65;;
21777;SDS011;11050;52.222;20.916;2024-03-23T08:54:54;31.85;;;19.45;;
21777;SDS011;11050;52.222;20.916;2024-03-23T08:57:21;31.40;;;19.70;;
21777;SDS011;11050;52.222;20.916;2024-03-23T08:59:48;28.58;;;18.33;;
21777;SDS011;11050;52.222;20.916;2024-03-23T09:02:14;27.95;;;18.55;;
21777;SDS011;11050;52.222;20.916;2024-03-23T09:04:40;27.83;;;17.35;;
21777;SDS011;11050;52.222;20.916;2024-03-23T09:07:06;31.85;;;17.60;;
21777;SDS011;11050;52.222;20.916;2024-03-23T09:09:31;28.88;;;17.15;;
21777;SDS011;11050;52.222;20.916;2024-03-23T09:11:57;29.88;;;18.08;;
21777;SDS011;11050;52.222;20.916;2024-03-23T09:14:23;26.38;;;16.70;;
21777;SDS011;11050;52.222;20.916;2024-03-23T09:16:51;24.50;;;15.57;;
21777;SDS011;11050;52.222;20.916;2024-03-23T09:19:17;23.95;;;15.43;;
21777;SDS011;11050;52.222;20.916;2024-03-23T09:21:43;22.38;;;14.65;;
21777;SDS011;11050;52.222;20.916;2024-03-23T09:24:08;23.42;;;13.68;;
21777;SDS011;11050;52.222;20.916;2024-03-23T09:26:34;23.27;;;14.38;;
21777;SDS011;11050;52.222;20.916;2024-03-23T09:29:00;21.88;;;14.02;;
21777;SDS011;11050;52.222;20.916;2024-03-23T09:31:26;20.88;;;14.43;;
21777;SDS011;11050;52.222;20.916;2024-03-23T09:33:51;21.50;;;14.15;;
21777;SDS011;11050;52.222;20.916;2024-03-23T09:36:17;24.10;;;15.00;;
21777;SDS011;11050;52.222;20.916;2024-03-23T09:38:43;20.92;;;13.25;;
21777;SDS011;11050;52.222;20.916;2024-03-23T09:41:09;24.67;;;14.02;;
21777;SDS011;11050;52.222;20.916;2024-03-23T09:43:35;21.30;;;13.60;;
21777;SDS011;11050;52.222;20.916;2024-03-23T09:46:01;21.02;;;13.68;;
21777;SDS011;11050;52.222;20.916;2024-03-23T09:48:28;21.85;;;13.45;;
21777;SDS011;11050;52.222;20.916;2024-03-23T09:50:53;23.88;;;14.45;;
21777;SDS011;11050;52.222;20.916;2024-03-23T09:53:19;21.73;;;13.50;;
21777;SDS011;11050;52.222;20.916;2024-03-23T09:55:47;19.60;;;12.38;;
21777;SDS011;11050;52.222;20.916;2024-03-23T09:58:15;18.20;;;12.30;;
21777;SDS011;11050;52.222;20.916;2024-03-23T10:00:42;20.17;;;12.02;;
21777;SDS011;11050;52.222;20.916;2024-03-23T10:03:09;19.95;;;12.90;;
21777;SDS011;11050;52.222;20.916;2024-03-23T10:05:36;18.55;;;12.02;;
21777;SDS011;11050;52.222;20.916;2024-03-23T10:10:44;19.58;;;11.82;;
21777;SDS011;11050;52.222;20.916;2024-03-23T10:13:23;18.50;;;12.25;;
21777;SDS011;11050;52.222;20.916;2024-03-23T10:15:57;17.98;;;11.40;;
21777;SDS011;11050;52.222;20.916;2024-03-23T10:18:24;22.30;;;12.35;;
21777;SDS011;11050;52.222;20.916;2024-03-23T10:23:39;18.02;;;11.63;;
21777;SDS011;11050;52.222;20.916;2024-03-23T10:28:53;15.68;;;10.43;;
21777;SDS011;11050;52.222;20.916;2024-03-23T10:31:32;18.48;;;10.98;;
21777;SDS011;11050;52.222;20.916;2024-03-23T10:34:03;16.25;;;10.30;;
21777;SDS011;11050;52.222;20.916;2024-03-23T10:36:29;17.30;;;10.35;;
21777;SDS011;11050;52.222;20.916;2024-03-23T10:38:55;14.68;;;9.90;;
21777;SDS011;11050;52.222;20.916;2024-03-23T10:41:26;17.65;;;11.32;;
21777;SDS011;11050;52.222;20.916;2024-03-23T10:43:54;16.30;;;11.20;;
21777;SDS011;11050;52.222;20.916;2024-03-23T10:46:23;16.20;;;10.88;;
21777;SDS011;11050;52.222;20.916;2024-03-23T10:48:49;17.35;;;10.73;;
21777;SDS011;11050;52.222;20.916;2024-03-23T10:51:15;15.18;;;10.20;;
21777;SDS011;11050;52.222;20.916;2024-03-23T10:53:41;17.88;;;10.20;;
21777;SDS011;11050;52.222;20.916;2024-03-23T10:56:07;15.32;;;10.10;;
21777;SDS011;11050;52.222;20.916;2024-03-23T10:58:53;14.98;;;9.10;;
21777;SDS011;11050;52.222;20.916;2024-03-23T11:01:20;18.38;;;10.23;;
21777;SDS011;11050;52.222;20.916;2024-03-23T11:03:46;15.23;;;9.93;;
21777;SDS011;11050;52.222;20.916;2024-03-23T11:06:33;12.80;;;9.23;;
21777;SDS011;11050;52.222;20.916;2024-03-23T11:09:38;15.68;;;9.38;;
21777;SDS011;11050;52.222;20.916;2024-03-23T11:14:53;12.60;;;8.43;;
21777;SDS011;11050;52.222;20.916;2024-03-23T11:17:30;12.73;;;9.02;;
21777;SDS011;11050;52.222;20.916;2024-03-23T11:22:45;14.02;;;9.32;;
21777;SDS011;11050;52.222;20.916;2024-03-23T11:27:44;13.20;;;8.75;;
21777;SDS011;11050;52.222;20.916;2024-03-23T11:30:19;12.80;;;8.32;;
21777;SDS011;11050;52.222;20.916;2024-03-23T11:32:50;11.02;;;8.40;;
21777;SDS011;11050;52.222;20.916;2024-03-23T11:35:31;10.80;;;7.90;;
21777;SDS011;11050;52.222;20.916;2024-03-23T11:40:50;12.52;;;7.93;;
21777;SDS011;11050;52.222;20.916;2024-03-23T11:43:16;11.13;;;7.30;;
21777;SDS011;11050;52.222;20.916;2024-03-23T11:45:44;9.30;;;7.05;;
21777;SDS011;11050;52.222;20.916;2024-03-23T11:48:14;11.80;;;6.80;;
21777;SDS011;11050;52.222;20.916;2024-03-23T11:50:48;9.82;;;6.95;;
21777;SDS011;11050;52.222;20.916;2024-03-23T11:53:22;10.88;;;6.53;;
21777;SDS011;11050;52.222;20.916;2024-03-23T11:55:56;11.20;;;7.50;;
21777;SDS011;11050;52.222;20.916;2024-03-23T11:58:26;12.43;;;6.88;;
21777;SDS011;11050;52.222;20.916;2024-03-23T12:03:22;11.35;;;7.45;;
21777;SDS011;11050;52.222;20.916;2024-03-23T12:05:54;9.70;;;7.10;;
21777;SDS011;11050;52.222;20.916;2024-03-23T12:08:25;10.68;;;7.13;;
21777;SDS011;11050;52.222;20.916;2024-03-23T12:11:05;9.70;;;6.60;;
21777;SDS011;11050;52.222;20.916;2024-03-23T12:13:38;13.20;;;7.35;;
21777;SDS011;11050;52.222;20.916;2024-03-23T12:18:43;12.45;;;7.95;;
21777;SDS011;11050;52.222;20.916;2024-03-23T12:21:11;11.05;;;7.68;;
21777;SDS011;11050;52.222;20.916;2024-03-23T12:23:40;11.38;;;7.72;;
21777;SDS011;11050;52.222;20.916;2024-03-23T12:26:13;12.88;;;7.88;;
21777;SDS011;11050;52.222;20.916;2024-03-23T12:28:40;12.73;;;8.05;;
21777;SDS011;11050;52.222;20.916;2024-03-23T12:31:06;13.25;;;8.85;;
21777;SDS011;11050;52.222;20.916;2024-03-23T12:33:32;10.95;;;7.57;;
21777;SDS011;11050;52.222;20.916;2024-03-23T12:35:58;11.73;;;7.80;;
21777;SDS011;11050;52.222;20.916;2024-03-23T12:38:23;10.70;;;7.57;;
21777;SDS011;11050;52.222;20.916;2024-03-23T12:40:49;18.23;;;8.18;;
21777;SDS011;11050;52.222;20.916;2024-03-23T12:43:16;18.55;;;9.18;;
21777;SDS011;11050;52.222;20.916;2024-03-23T12:45:49;13.50;;;8.57;;
21777;SDS011;11050;52.222;20.916;2024-03-23T12:48:15;14.00;;;8.35;;
21777;SDS011;11050;52.222;20.916;2024-03-23T12:50:42;12.30;;;8.43;;
21777;SDS011;11050;52.222;20.916;2024-03-23T12:53:07;14.93;;;8.50;;
21777;SDS011;11050;52.222;20.916;2024-03-23T12:55:36;10.07;;;7.50;;
21777;SDS011;11050;52.222;20.916;2024-03-23T12:58:02;13.85;;;8.48;;
21777;SDS011;11050;52.222;20.916;2024-03-23T13:00:29;15.20;;;8.98;;
21777;SDS011;11050;52.222;20.916;2024-03-23T13:02:55;12.43;;;8.18;;
21777;SDS011;11050;52.222;20.916;2024-03-23T13:05:21;10.93;;;7.50;;
21777;SDS011;11050;52.222;20.916;2024-03-23T13:07:48;10.98;;;7.70;;
21777;SDS011;11050;52.222;20.916;2024-03-23T13:10:13;12.93;;;8.27;;
21777;SDS011;11050;52.222;20.916;2024-03-23T13:12:40;14.38;;;8.60;;
21777;SDS011;11050;52.222;20.916;2024-03-23T13:15:07;13.93;;;8.20;;
21777;SDS011;11050;52.222;20.916;2024-03-23T13:17:34;14.00;;;8.57;;
21777;SDS011;11050;52.222;20.916;2024-03-23T13:19:59;12.45;;;8.15;;
21777;SDS011;11050;52.222;20.916;2024-03-23T13:22:25;12.75;;;7.72;;
21777;SDS011;11050;52.222;20.916;2024-03-23T13:24:51;10.52;;;7.57;;
21777;SDS011;11050;52.222;20.916;2024-03-23T13:27:17;12.15;;;8.35;;
21777;SDS011;11050;52.222;20.916;2024-03-23T13:29:43;12.20;;;7.80;;
21777;SDS011;11050;52.222;20.916;2024-03-23T13:32:11;12.30;;;8.07;;
21777;SDS011;11050;52.222;20.916;2024-03-23T13:34:37;11.95;;;8.25;;
21777;SDS011;11050;52.222;20.916;2024-03-23T13:37:02;12.10;;;7.90;;
21777;SDS011;11050;52.222;20.916;2024-03-23T13:39:28;13.40;;;7.00;;
21777;SDS011;11050;52.222;20.916;2024-03-23T13:41:55;10.48;;;7.70;;
21777;SDS011;11050;52.222;20.916;2024-03-23T13:44:21;20.08;;;8.25;;
21777;SDS011;11050;52.222;20.916;2024-03-23T13:46:48;15.52;;;7.82;;
21777;SDS011;11050;52.222;20.916;2024-03-23T13:49:26;9.77;;;7.47;;
21777;SDS011;11050;52.222;20.916;2024-03-23T13:51:54;12.57;;;7.28;;
21777;SDS011;11050;52.222;20.916;2024-03-23T13:54:22;11.45;;;8.13;;
21777;SDS011;11050;52.222;20.916;2024-03-23T13:56:49;12.80;;;7.63;;
21777;SDS011;11050;52.222;20.916;2024-03-23T13:59:22;16.05;;;8.00;;
21777;SDS011;11050;52.222;20.916;2024-03-23T14:01:49;12.88;;;7.95;;
21777;SDS011;11050;52.222;20.916;2024-03-23T14:04:18;11.27;;;7.10;;
21777;SDS011;11050;52.222;20.916;2024-03-23T14:06:45;12.73;;;8.30;;
21777;SDS011;11050;52.222;20.916;2024-03-23T14:09:12;14.30;;;8.00;;
21777;SDS011;11050;52.222;20.916;2024-03-23T14:11:39;10.50;;;7.50;;
21777;SDS011;11050;52.222;20.916;2024-03-23T14:14:07;13.38;;;7.50;;
21777;SDS011;11050;52.222;20.916;2024-03-23T14:16:33;15.32;;;8.38;;
21777;SDS011;11050;52.222;20.916;2024-03-23T14:18:59;12.02;;;7.93;;
21777;SDS011;11050;52.222;20.916;2024-03-23T14:21:25;17.23;;;9.00;;
21777;SDS011;11050;52.222;20.916;2024-03-23T14:23:51;14.73;;;8.05;;
21777;SDS011;11050;52.222;20.916;2024-03-23T14:26:16;13.88;;;8.38;;
21777;SDS011;11050;52.222;20.916;2024-03-23T14:28:42;12.63;;;8.57;;
21777;SDS011;11050;52.222;20.916;2024-03-23T14:31:08;11.00;;;7.45;;
21777;SDS011;11050;52.222;20.916;2024-03-23T14:33:37;10.80;;;8.25;;
21777;SDS011;11050;52.222;20.916;2024-03-23T14:36:06;12.25;;;9.02;;
21777;SDS011;11050;52.222;20.916;2024-03-23T14:38:32;17.73;;;8.80;;
21777;SDS011;11050;52.222;20.916;2024-03-23T14:41:00;14.65;;;8.75;;
21777;SDS011;11050;52.222;20.916;2024-03-23T14:43:28;16.65;;;9.68;;
21777;SDS011;11050;52.222;20.916;2024-03-23T14:48:40;16.73;;;10.40;;
21777;SDS011;11050;52.222;20.916;2024-03-23T14:51:08;20.85;;;9.70;;
21777;SDS011;11050;52.222;20.916;2024-03-23T14:53:36;16.67;;;9.57;;
21777;SDS011;11050;52.222;20.916;2024-03-23T14:56:10;13.43;;;8.60;;
21777;SDS011;11050;52.222;20.916;2024-03-23T14:58:38;13.63;;;8.90;;
21777;SDS011;11050;52.222;20.916;2024-03-23T15:01:05;15.35;;;10.20;;
21777;SDS011;11050;52.222;20.916;2024-03-23T15:03:34;16.73;;;10.95;;
21777;SDS011;11050;52.222;20.916;2024-03-23T15:06:08;16.33;;;10.75;;
21777;SDS011;11050;52.222;20.916;2024-03-23T15:08:34;20.90;;;12.10;;
21777;SDS011;11050;52.222;20.916;2024-03-23T15:11:01;14.77;;;10.75;;
21777;SDS011;11050;52.222;20.916;2024-03-23T15:13:39;16.13;;;11.95;;
21777;SDS011;11050;52.222;20.916;2024-03-23T15:16:05;18.75;;;12.05;;
21777;SDS011;11050;52.222;20.916;2024-03-23T15:18:34;24.98;;;15.07;;
21777;SDS011;11050;52.222;20.916;2024-03-23T15:21:01;24.85;;;14.82;;
21777;SDS011;11050;52.222;20.916;2024-03-23T15:23:31;21.83;;;14.43;;
21777;SDS011;11050;52.222;20.916;2024-03-23T15:25:57;26.08;;;16.55;;
21777;SDS011;11050;52.222;20.916;2024-03-23T15:28:25;25.63;;;15.35;;
21777;SDS011;11050;52.222;20.916;2024-03-23T15:31:02;26.40;;;17.55;;
21777;SDS011;11050;52.222;20.916;2024-03-23T15:33:32;33.63;;;19.52;;
21777;SDS011;11050;52.222;20.916;2024-03-23T15:35:59;31.15;;;18.67;;